createdAt,value
2019-02-06T00:03:40.556Z,8.57
2019-02-06T00:08:48.322Z,8.90
2019-02-06T00:13:54.768Z,8.33
2019-02-06T00:19:01.151Z,9.47
2019-02-06T00:24:07.503Z,8.67
2019-02-06T00:29:14.144Z,9.80
2019-02-06T00:34:20.514Z,9.38
2019-02-06T00:39:26.819Z,10.30
2019-02-06T00:44:33.191Z,10.53
2019-02-06T00:49:39.462Z,11.03
2019-02-06T00:54:46.165Z,11.07
2019-02-06T00:59:52.962Z,10.53
2019-02-06T01:04:59.265Z,12.57
2019-02-06T01:10:06.858Z,11.55
2019-02-06T01:15:13.589Z,11.23
2019-02-06T01:20:20.001Z,12.13
2019-02-06T01:25:27.392Z,11.75
2019-02-06T01:30:44.575Z,13.23
2019-02-06T01:35:50.862Z,12.80
2019-02-06T01:40:58.724Z,12.30
2019-02-06T01:46:05.593Z,12.20
2019-02-06T01:51:11.983Z,11.93
2019-02-06T01:56:20.694Z,12.03
2019-02-06T02:01:27.015Z,11.83
2019-02-06T02:06:33.312Z,11.30
2019-02-06T02:11:39.776Z,11.13
2019-02-06T02:16:46.184Z,11.10
2019-02-06T02:21:52.727Z,10.82
2019-02-06T02:27:00.650Z,11.30
2019-02-06T02:32:06.915Z,12.00
2019-02-06T02:37:14.528Z,10.97
2019-02-06T02:42:21.237Z,10.87
2019-02-06T02:47:27.636Z,11.53
2019-02-06T02:52:34.267Z,10.90
2019-02-06T02:57:40.929Z,11.77
2019-02-06T03:02:59.984Z,11.17
2019-02-06T03:08:06.296Z,11.90
2019-02-06T03:13:12.556Z,12.13
2019-02-06T03:18:18.872Z,11.68
2019-02-06T03:23:25.690Z,9.40
2019-02-06T03:28:31.971Z,11.17
2019-02-06T03:33:38.555Z,11.00
2019-02-06T03:38:45.110Z,10.83
2019-02-06T03:43:51.474Z,11.40
2019-02-06T03:48:57.768Z,10.37
2019-02-06T03:54:04.780Z,11.07
2019-02-06T03:59:11.104Z,10.83
2019-02-06T04:04:17.361Z,10.23
2019-02-06T04:09:23.788Z,10.25
2019-02-06T04:14:30.114Z,9.87
2019-02-06T04:19:36.474Z,9.57
2019-02-06T04:24:45.116Z,10.20
2019-02-06T04:29:51.513Z,9.33
2019-02-06T04:34:57.925Z,9.90
2019-02-06T04:40:05.083Z,9.47
2019-02-06T04:45:12.118Z,10.03
2019-02-06T04:50:18.733Z,9.50
2019-02-06T04:55:25.050Z,10.27
2019-02-06T05:00:31.342Z,10.03
2019-02-06T05:05:37.594Z,9.40
2019-02-06T05:10:45.532Z,10.50
2019-02-06T05:15:51.822Z,9.13
2019-02-06T05:20:58.289Z,10.37
2019-02-06T05:26:05.537Z,8.98
2019-02-06T05:31:12.263Z,9.90
2019-02-06T05:36:18.644Z,8.50
2019-02-06T05:41:24.973Z,9.13
2019-02-06T05:46:31.952Z,8.93
2019-02-06T05:51:38.264Z,9.35
2019-02-06T05:56:44.653Z,9.75
2019-02-06T06:01:51.257Z,9.50
2019-02-06T06:06:59.387Z,9.13
2019-02-06T06:12:05.717Z,9.43
2019-02-06T06:17:12.233Z,9.43
2019-02-06T06:22:18.926Z,9.25
2019-02-06T06:27:25.289Z,9.18
2019-02-06T06:32:32.098Z,9.10
2019-02-06T06:37:41.374Z,8.80
2019-02-06T06:42:46.718Z,9.40
2019-02-06T06:47:53.469Z,10.03
2019-02-06T06:52:59.806Z,10.00
2019-02-06T06:58:06.345Z,9.07
2019-02-06T07:03:12.705Z,10.08
2019-02-06T07:08:19.065Z,9.83
2019-02-06T07:13:25.361Z,10.08
2019-02-06T07:18:31.662Z,10.67
2019-02-06T07:23:37.969Z,10.30
2019-02-06T07:28:45.479Z,10.53
2019-02-06T07:33:51.935Z,10.40
2019-02-06T07:38:58.240Z,9.77
2019-02-06T07:44:05.703Z,9.68
2019-02-06T07:49:12.063Z,11.03
2019-02-06T07:54:18.277Z,9.58
2019-02-06T07:59:24.574Z,9.20
2019-02-06T08:04:30.876Z,10.10
2019-02-06T08:09:37.207Z,10.23
2019-02-06T08:14:43.579Z,10.38
2019-02-06T08:19:49.917Z,9.23
2019-02-06T08:24:56.327Z,9.97
2019-02-06T08:30:02.717Z,8.90
2019-02-06T08:35:09.809Z,9.37
2019-02-06T08:40:17.057Z,9.45
2019-02-06T08:45:23.829Z,9.93
2019-02-06T08:50:30.368Z,9.87
2019-02-06T08:55:36.663Z,9.40
2019-02-06T09:00:42.935Z,9.37
2019-02-06T09:05:49.509Z,8.98
2019-02-06T09:10:55.888Z,10.53
2019-02-06T09:16:02.155Z,9.40
2019-02-06T09:21:08.467Z,8.63
2019-02-06T09:26:14.795Z,10.13
2019-02-06T09:31:21.395Z,9.10
2019-02-06T09:36:27.739Z,8.77
2019-02-06T09:41:35.852Z,8.80
2019-02-06T09:46:42.177Z,9.33
2019-02-06T09:51:48.936Z,9.10
2019-02-06T09:56:55.767Z,9.57
2019-02-06T10:02:02.188Z,10.27
2019-02-06T10:07:08.579Z,9.68
2019-02-06T10:12:14.934Z,9.50
2019-02-06T10:17:22.274Z,9.93
2019-02-06T10:22:28.829Z,10.13
2019-02-06T10:27:35.679Z,8.70
2019-02-06T10:32:42.285Z,9.50
2019-02-06T10:37:49.619Z,10.60
2019-02-06T10:42:56.080Z,9.87
2019-02-06T10:48:02.352Z,9.63
2019-02-06T10:53:09.089Z,8.83
2019-02-06T10:58:15.479Z,8.93
2019-02-06T11:03:21.744Z,10.25
2019-02-06T11:08:28.076Z,9.63
2019-02-06T11:13:34.678Z,8.93
2019-02-06T11:18:40.963Z,9.30
2019-02-06T11:23:47.321Z,10.30
2019-02-06T11:28:53.886Z,8.68
2019-02-06T11:34:00.138Z,9.07
2019-02-06T11:39:15.965Z,9.88
2019-02-06T11:44:24.495Z,9.63
2019-02-06T11:49:37.357Z,9.83
2019-02-06T11:54:43.668Z,10.55
2019-02-06T11:59:52.947Z,11.10
2019-02-06T12:04:58.031Z,10.40
2019-02-06T12:10:10.060Z,10.53
2019-02-06T12:15:16.737Z,10.77
2019-02-06T12:20:23.293Z,10.13
2019-02-06T12:25:29.854Z,10.30
2019-02-06T12:30:36.805Z,10.20
2019-02-06T12:35:43.331Z,11.87
2019-02-06T12:40:49.903Z,12.37
2019-02-06T12:45:56.246Z,12.40
2019-02-06T12:51:02.590Z,11.47
2019-02-06T12:56:08.901Z,9.95
2019-02-06T13:01:15.224Z,10.08
2019-02-06T13:06:22.011Z,10.75
2019-02-06T13:11:28.400Z,10.25
2019-02-06T13:16:34.739Z,10.70
2019-02-06T13:21:42.572Z,10.50
2019-02-06T13:26:50.514Z,10.07
2019-02-06T13:31:57.256Z,9.43
2019-02-06T13:37:03.559Z,10.07
2019-02-06T13:42:09.867Z,9.10
2019-02-06T13:47:16.504Z,8.23
2019-02-06T13:52:22.815Z,8.93
2019-02-06T13:57:33.858Z,8.33
2019-02-06T14:02:38.499Z,9.60
2019-02-06T14:07:45.096Z,9.43
2019-02-06T14:12:53.224Z,8.23
2019-02-06T14:18:00.043Z,7.60
2019-02-06T14:23:12.203Z,7.33
2019-02-06T14:28:58.520Z,7.20
2019-02-06T14:34:42.411Z,6.40
2019-02-06T14:40:13.721Z,6.40
2019-02-06T14:45:52.712Z,7.30
2019-02-06T14:51:31.140Z,7.07
2019-02-06T14:57:03.899Z,6.70
2019-02-06T15:02:47.783Z,6.27
2019-02-06T15:08:10.557Z,5.93
2019-02-06T15:13:41.300Z,5.57
2019-02-06T15:19:24.427Z,5.60
2019-02-06T15:25:09.486Z,5.70
2019-02-06T15:30:58.877Z,5.53
2019-02-06T15:36:24.808Z,5.22
2019-02-06T15:41:53.478Z,5.13
2019-02-06T15:47:37.865Z,5.30
2019-02-06T15:53:27.811Z,5.57
2019-02-06T15:59:12.407Z,5.27
2019-02-06T16:05:17.902Z,5.53
2019-02-06T16:10:50.255Z,6.00
2019-02-06T16:16:16.127Z,6.97
2019-02-06T16:21:53.157Z,8.43
2019-02-06T16:27:33.175Z,7.90
2019-02-06T16:33:25.143Z,7.90
2019-02-06T16:38:47.565Z,6.93
2019-02-06T16:44:30.932Z,7.00
2019-02-06T16:50:24.260Z,7.20
2019-02-06T16:56:08.000Z,5.77
2019-02-06T17:01:38.420Z,5.40
2019-02-06T17:07:19.185Z,5.47
2019-02-06T17:13:02.507Z,5.00
2019-02-06T17:18:56.150Z,6.15
2019-02-06T17:24:55.482Z,5.00
2019-02-06T17:30:55.431Z,4.27
2019-02-06T17:36:31.373Z,3.73
2019-02-06T17:42:20.832Z,3.17
2019-02-06T17:48:17.334Z,2.90
2019-02-06T17:54:10.826Z,2.80
2019-02-06T17:59:17.236Z,3.87
2019-02-06T18:04:26.827Z,3.45
2019-02-06T18:09:33.528Z,3.30
2019-02-06T18:14:39.846Z,3.77
2019-02-06T18:19:47.322Z,3.60
2019-02-06T18:24:53.778Z,2.95
2019-02-06T18:30:00.238Z,3.43
2019-02-06T18:35:07.255Z,3.20
2019-02-06T18:40:13.950Z,3.20
2019-02-06T18:45:20.905Z,3.80
2019-02-06T18:50:28.079Z,3.63
2019-02-06T18:55:34.443Z,3.95
2019-02-06T19:00:41.052Z,4.07
2019-02-06T19:05:47.585Z,4.03
2019-02-06T19:10:53.895Z,4.07
2019-02-06T19:16:00.326Z,3.60
2019-02-06T19:21:07.047Z,4.67
2019-02-06T19:26:13.791Z,4.90
2019-02-06T19:31:20.148Z,5.23
2019-02-06T19:36:26.476Z,5.20
2019-02-06T19:41:32.847Z,4.93
2019-02-06T19:46:39.205Z,4.53
2019-02-06T19:51:45.863Z,4.40
2019-02-06T19:56:52.282Z,6.10
2019-02-06T20:01:58.673Z,6.53
2019-02-06T20:07:05.924Z,5.55
2019-02-06T20:12:12.214Z,6.33
2019-02-06T20:17:19.051Z,6.47
2019-02-06T20:22:25.410Z,5.83
2019-02-06T20:27:31.842Z,6.53
2019-02-06T20:32:38.229Z,7.10
2019-02-06T20:37:44.948Z,6.63
2019-02-06T20:42:51.616Z,7.10
2019-02-06T20:47:58.853Z,7.17
2019-02-06T20:53:06.451Z,7.97
2019-02-06T20:58:12.767Z,6.87
2019-02-06T21:03:19.106Z,7.10
2019-02-06T21:08:25.537Z,6.70
2019-02-06T21:13:33.699Z,7.33
2019-02-06T21:18:39.825Z,7.77
2019-02-06T21:23:46.245Z,7.90
2019-02-06T21:28:52.593Z,8.60
2019-02-06T21:33:58.896Z,9.77
2019-02-06T21:39:09.330Z,10.00
2019-02-06T21:44:15.895Z,10.18
2019-02-06T21:49:22.229Z,10.53
2019-02-06T21:54:28.548Z,10.20
2019-02-06T21:59:35.952Z,12.10
2019-02-06T22:04:42.818Z,11.30
2019-02-06T22:09:49.185Z,10.33
2019-02-06T22:14:55.705Z,12.88
2019-02-06T22:20:01.996Z,12.37
2019-02-06T22:25:08.562Z,13.63
2019-02-06T22:30:17.599Z,13.17
2019-02-06T22:35:24.297Z,13.78
2019-02-06T22:40:30.617Z,13.28
2019-02-06T22:45:38.010Z,13.90
2019-02-06T22:50:44.325Z,12.95
2019-02-06T22:55:50.649Z,13.73
2019-02-06T23:01:17.836Z,13.63
2019-02-06T23:06:24.197Z,13.17
2019-02-06T23:11:30.562Z,13.53
2019-02-06T23:16:36.875Z,13.67
2019-02-06T23:21:44.584Z,14.43
2019-02-06T23:26:51.115Z,14.33
2019-02-06T23:31:57.800Z,16.27
2019-02-06T23:37:04.307Z,15.80
2019-02-06T23:42:10.609Z,16.30
2019-02-06T23:47:16.991Z,16.10
2019-02-06T23:52:23.284Z,16.67
2019-02-06T23:57:29.814Z,16.40
